McKinney, TX (75069)

5:45 PM CDT on August 30, 2015 (GMT -0500)
Collin County Regional | | Change Station
CLOSE
Current Station
Airport
Location: McKinney,
Elevation: 584 ft
Nearby Weather Stations

Elev 584 ft 33.18 °N, 96.59 °W | Updated 52 minutes ago

Clear
Clear
94 °F
Feels Like 93 °F
N
8
Wind Variable Wind from SSW

Today
High -- | Low -- °F
--% Chance of Precip.
Yesterday
High -- | Low -- °F
Precip. -- in
6:59 AM 7:54 PM
Full, 98% visible
Pressure 29.91 in
Visibility 10.0 miles
Clouds Clear
Heat Index 93 °F
Dew Point 58 °F
Humidity 30%
Rainfall 0.00 in
Snow Depth Not available.
UV 4 out of 12
Pollen 8.70 out of 12
Air Quality Not available.
Flu Activity Not available.
METAR KTKI 302153Z 21007KT 10SM CLR 34/14 A2993 RMK AO2 LTG DSNT SE SLP127 T03440144
Pressure 29.91 in
Visibility 10.0 miles
Clouds Clear
Heat Index 93 °F
Dew Point 58 °F
Humidity 30%
Rainfall 0.00 in
Snow Depth Not available.
UV 4 out of 12
Pollen 8.70 out of 12
Air Quality Not available.
Flu Activity Not available.
METAR KTKI 302153Z 21007KT 10SM CLR 34/14 A2993 RMK AO2 LTG DSNT SE SLP127 T03440144
Nowcast | as of 3:16 PM CDT on August 30, 2015

Showers and thunderstorms will continue to develop the remainder of the afternoon. The bulk of the activity will be south of the I-20 corridor. The strongest storms will be capable of heavy rain...small hail...and wind gusts in excess of 40 mph. Those engaged in outdoor activities should keep abreast of the weather. Move indoors immediately if lightning is seen or thunder is heard.

×

10-Day Weather Forecast

×

Almanac

Astronomy

Aug. 30, 2015 Rise Set
Actual Time
Civil Twilight
Nautical Twilight
Astronomical Twilight
Moon
Length of Visible Light
Length of Day
Tomorrow will be .
, % of the Moon is Illuminated

Today's Extremes

State Highs State Lows

Community

WunderPhotos

Upload Photos

1,851,075 photos uploaded!

WunderBlogs® & News

Nearby

Air Quality

  Air Quality AQ Index Pollutant
Not available.

Snow Depth

Station Depth Elevation

Earthquake Activity

City Distance Mag. Time & Date
Minimum magnitude displayed is 2.5.

Coastal Water Temperatures

Place Temperature

Stations

Nearby Weather Stations

Station Location Temp. Windchill Dew Point Humidity Wind Precip. Elev Updated Type